Time;durP1;ratioP1;P1;durP2;ratioP2;P2;SDS_P1;SDS_P2;PMS_P1;PMS_P2;Temp;Humidity;BMP_temperature;BMP_pressure;BME280_temperature;BME280_humidity;BME280_pressure;Samples;Min_cycle;Max_cycle;Signal;HPM_P1;HPM_P2
2022/10/03 00:00:32;;;;;;;5.40;2.30;;;;;;;10.41;100.00;97850.73;1752924;81;21130;-88
2022/10/03 00:03:23;;;;;;;6.22;2.17;;;;;;;10.37;100.00;97853.20;1772020;81;20988;-88
2022/10/03 00:06:14;;;;;;;7.80;2.17;;;;;;;10.35;100.00;97852.69;1737211;80;21025;-87
2022/10/03 00:09:11;;;;;;;5.55;1.92;;;;;;;10.34;100.00;97859.20;1740007;81;21455;-85
2022/10/03 00:11:59;;;;;;;8.35;2.22;;;;;;;10.33;100.00;97855.39;1792403;79;21506;-85
2022/10/03 00:14:48;;;;;;;6.35;2.40;;;;;;;10.33;100.00;97856.20;1828123;78;21104;-88
2022/10/03 00:17:40;;;;;;;3.58;1.98;;;;;;;10.34;100.00;97848.36;1828055;77;20978;-88
2022/10/03 00:20:39;;;;;;;5.55;1.82;;;;;;;10.33;100.00;97849.42;1819645;76;20973;-85
2022/10/03 00:23:23;;;;;;;5.72;2.05;;;;;;;10.31;100.00;97848.91;1836148;77;21033;-85
2022/10/03 00:26:31;;;;;;;6.65;2.30;;;;;;;10.29;100.00;97846.22;1828111;77;20951;-88
2022/10/03 00:29:29;;;;;;;5.60;3.55;;;;;;;10.30;100.00;97847.84;1824705;77;21866;-85
2022/10/03 00:32:31;;;;;;;8.50;3.70;;;;;;;10.25;100.00;97847.86;1828152;77;21549;-84
2022/10/03 00:35:09;;;;;;;4.90;2.40;;;;;;;10.24;100.00;97847.60;1827731;78;21453;-85
2022/10/03 00:37:38;;;;;;;7.80;3.10;;;;;;;10.21;100.00;97850.30;1827997;77;21017;-85
2022/10/03 00:40:16;;;;;;;;;;;;;;;10.21;100.00;97855.72;1831211;78;20963;-84
2022/10/03 00:43:32;;;;;;;6.17;2.87;;;;;;;10.22;100.00;97847.05;1824864;77;21238;-88
2022/10/03 00:46:28;;;;;;;4.08;2.50;;;;;;;10.20;100.00;97843.27;1828108;77;20973;-85
2022/10/03 00:49:31;;;;;;;6.97;3.08;;;;;;;10.21;100.00;97843.53;1827897;77;21371;-88
2022/10/03 00:52:31;;;;;;;8.28;3.72;;;;;;;10.20;100.00;97844.63;1811095;78;20960;-84
2022/10/03 00:55:09;;;;;;;8.55;3.85;;;;;;;10.24;100.00;97845.70;1812891;78;20968;-86
2022/10/03 00:58:21;;;;;;;5.83;3.08;;;;;;;10.24;100.00;97843.54;1810676;78;21040;-84
2022/10/03 01:00:50;;;;;;;6.30;3.10;;;;;;;10.25;100.00;97846.51;1810913;79;20960;-84
2022/10/03 01:03:39;;;;;;;6.92;3.33;;;;;;;10.23;100.00;97840.02;1810906;78;20976;-84
2022/10/03 01:06:32;;;;;;;7.90;2.98;;;;;;;10.25;100.00;97842.45;1832242;76;20957;-88
2022/10/03 01:09:12;;;;;;;7.95;3.00;;;;;;;10.23;100.00;97841.38;1873830;75;21382;-87
2022/10/03 01:12:14;;;;;;;5.78;3.00;;;;;;;10.21;100.00;97838.13;1834587;76;21062;-85
2022/10/03 01:15:09;;;;;;;8.05;3.20;;;;;;;10.24;100.00;97839.48;1810855;79;21065;-87
2022/10/03 01:17:52;;;;;;;6.67;3.17;;;;;;;10.24;100.00;97834.06;1811094;79;21074;-88
2022/10/03 01:20:42;;;;;;;8.53;3.80;;;;;;;10.27;100.00;97840.29;1799466;76;21011;-85
2022/10/03 01:23:29;;;;;;;5.45;3.33;;;;;;;10.26;100.00;97834.06;1828126;77;21423;-84
2022/10/03 01:26:06;;;;;;;6.20;2.83;;;;;;;10.29;100.00;97834.03;1831159;76;21248;-85
2022/10/03 01:31:51;;;;;;;5.40;3.62;;;;;;;10.31;100.00;97825.08;1828033;78;21005;-88
2022/10/03 01:34:31;;;;;;;7.58;4.17;;;;;;;10.32;100.00;97823.98;1815526;78;21028;-85
2022/10/03 01:37:15;;;;;;;6.10;3.15;;;;;;;10.30;100.00;97822.92;1828103;77;20982;-85
2022/10/03 01:39:49;;;;;;;6.78;3.00;;;;;;;10.32;100.00;97817.21;1827819;77;21031;-88
2022/10/03 01:42:33;;;;;;;9.40;3.42;;;;;;;10.29;100.00;97816.44;1828087;77;20966;-85
2022/10/03 01:45:39;;;;;;;6.60;3.08;;;;;;;10.31;100.00;97812.89;1828016;78;21026;-89
2022/10/03 01:48:52;;;;;;;9.30;3.22;;;;;;;10.32;100.00;97814.50;1804752;78;21608;-85
2022/10/03 01:51:29;;;;;;;10.53;4.10;;;;;;;10.32;100.00;97816.66;1828210;77;20974;-88
2022/10/03 01:54:22;;;;;;;5.62;3.05;;;;;;;10.34;100.00;97814.51;1827984;77;21858;-85
2022/10/03 01:57:01;;;;;;;5.90;3.40;;;;;;;10.34;100.00;97818.57;1828257;77;21037;-87
2022/10/03 01:59:48;;;;;;;5.85;2.70;;;;;;;10.33;100.00;97812.86;1827847;77;21005;-87
2022/10/03 02:02:26;;;;;;;11.70;3.87;;;;;;;10.31;100.00;97823.17;1828172;77;20966;-85
2022/10/03 02:05:12;;;;;;;8.15;3.55;;;;;;;10.33;100.00;97824.24;1823075;77;21002;-85
2022/10/03 02:08:02;;;;;;;9.73;3.98;;;;;;;10.33;100.00;97822.34;1786650;78;21128;-85
2022/10/03 02:11:00;;;;;;;9.60;3.98;;;;;;;10.32;100.00;97823.98;1787842;76;20966;-85
2022/10/03 02:13:48;;;;;;;9.00;3.20;;;;;;;10.32;100.00;97830.20;1828248;77;20998;-88
2022/10/03 02:16:36;;;;;;;9.65;2.90;;;;;;;10.35;100.00;97831.02;1828253;77;20978;-85
2022/10/03 02:19:33;;;;;;;10.55;2.87;;;;;;;10.34;100.00;97829.92;1828057;77;20951;-84
2022/10/03 02:21:59;;;;;;;7.55;3.70;;;;;;;10.34;100.00;97828.05;1807859;78;21404;-85
2022/10/03 02:24:39;;;;;;;6.67;3.00;;;;;;;10.37;100.00;97834.79;1811207;78;20864;-87
2022/10/03 02:27:45;;;;;;;5.78;3.12;;;;;;;10.37;100.00;97832.08;1832590;76;21259;-85
2022/10/03 02:30:21;;;;;;;8.18;3.37;;;;;;;10.39;100.00;97832.05;1834157;77;21439;-88
2022/10/03 02:33:32;;;;;;;11.10;4.17;;;;;;;10.41;100.00;97835.28;1805764;78;20958;-87
2022/10/03 02:36:47;;;;;;;5.45;3.02;;;;;;;10.42;100.00;97840.16;1828109;77;21068;-85
2022/10/03 02:39:31;;;;;;;5.20;3.27;;;;;;;10.42;100.00;97838.80;1827866;77;20986;-87
2022/10/03 02:42:42;;;;;;;12.37;4.92;;;;;;;10.42;100.00;97842.34;1828619;77;21478;-85
2022/10/03 02:45:37;;;;;;;7.80;3.90;;;;;;;10.39;100.00;97840.18;1828210;77;20986;-85
2022/10/03 02:48:39;;;;;;;9.60;4.05;;;;;;;10.40;100.00;97839.63;1828255;77;20970;-85
2022/10/03 02:51:27;;;;;;;7.05;4.12;;;;;;;10.39;100.00;97846.14;1827999;77;21030;-85
2022/10/03 02:54:21;;;;;;;10.38;6.22;;;;;;;10.40;100.00;97835.57;1828050;77;21049;-84
2022/10/03 02:56:59;;;;;;;8.85;4.20;;;;;;;10.37;100.00;97839.66;1828046;77;20994;-85
2022/10/03 02:59:41;;;;;;;9.20;4.12;;;;;;;10.34;100.00;97840.23;1827216;78;20974;-84
2022/10/03 03:02:49;;;;;;;6.97;3.70;;;;;;;10.29;100.00;97834.84;1828348;77;21411;-88
2022/10/03 03:05:43;;;;;;;10.38;3.77;;;;;;;10.28;100.00;97828.36;1818882;78;21133;-88
2022/10/03 03:08:57;;;;;;;5.58;3.20;;;;;;;10.30;100.00;97837.00;1818273;78;21436;-88
2022/10/03 03:12:05;;;;;;;6.78;2.80;;;;;;;10.28;100.00;97825.66;1811382;78;21471;-88
2022/10/03 03:14:53;;;;;;;6.50;3.25;;;;;;;10.26;100.00;97833.26;1811311;78;21447;-85
2022/10/03 03:17:35;;;;;;;4.75;2.55;;;;;;;10.25;100.00;97836.48;1812094;77;21121;-88
2022/10/03 03:20:18;;;;;;;8.53;3.15;;;;;;;10.23;100.00;97833.80;1822228;78;21000;-88
2022/10/03 03:22:50;;;;;;;7.10;3.20;;;;;;;10.25;100.00;97841.09;1779012;79;21035;-85
2022/10/03 03:25:56;;;;;;;11.60;4.08;;;;;;;10.24;100.00;97832.70;1782428;76;21097;-88
2022/10/03 03:28:45;;;;;;;8.13;4.62;;;;;;;10.25;100.00;97839.73;1833934;77;21022;-87
2022/10/03 03:31:22;;;;;;;8.00;3.67;;;;;;;10.22;100.00;97834.86;1828321;77;21629;-85
2022/10/03 03:34:06;;;;;;;12.75;4.37;;;;;;;10.22;100.00;97837.05;1760679;80;21066;-85
2022/10/03 03:36:43;;;;;;;12.18;5.42;;;;;;;10.14;100.00;97834.91;1788286;80;20963;-89
2022/10/03 03:39:47;;;;;;;14.90;4.87;;;;;;;10.15;100.00;97835.98;1788508;78;21003;-87
2022/10/03 03:42:46;;;;;;;7.80;4.05;;;;;;;10.14;100.00;97830.30;1788644;78;21046;-85
2022/10/03 03:45:33;;;;;;;8.78;4.67;;;;;;;10.13;100.00;97818.41;1788379;80;21003;-88
2022/10/03 03:48:29;;;;;;;6.10;3.62;;;;;;;10.12;100.00;97819.50;1788707;78;21467;-89
2022/10/03 03:51:23;;;;;;;8.60;3.70;;;;;;;10.13;100.00;97819.77;1788466;80;20979;-85
2022/10/03 03:54:33;;;;;;;10.88;4.03;;;;;;;10.09;100.00;97814.11;1784682;78;21031;-87
2022/10/03 03:57:41;;;;;;;12.40;4.30;;;;;;;10.10;100.00;97821.14;1788552;78;21007;-84
2022/10/03 04:00:23;;;;;;;10.30;3.37;;;;;;;10.09;100.00;97818.72;1760886;79;21403;-84
2022/10/03 04:03:26;;;;;;;13.78;3.83;;;;;;;10.13;100.00;97823.83;1775703;78;21704;-85
2022/10/03 04:06:11;;;;;;;10.93;4.08;;;;;;;10.15;100.00;97824.34;1799834;76;20958;-85
2022/10/03 04:08:59;;;;;;;6.45;3.55;;;;;;;10.15;100.00;97827.86;1833122;76;20939;-85
2022/10/03 04:12:05;;;;;;;13.37;4.67;;;;;;;10.17;100.00;97822.19;1838555;77;21398;-85
2022/10/03 04:14:57;;;;;;;8.58;3.35;;;;;;;10.20;100.00;97824.32;1827554;78;20974;-84
2022/10/03 04:20:46;;;;;;;11.35;5.62;;;;;;;10.22;100.00;97818.62;1815950;77;21032;-89
2022/10/03 04:23:59;;;;;;;12.23;6.22;;;;;;;10.24;100.00;97818.63;1770176;80;21001;-84
2022/10/03 04:26:45;;;;;;;15.85;3.60;;;;;;;10.26;100.00;97825.94;1811313;79;21035;-85
2022/10/03 04:29:35;;;;;;;8.80;4.45;;;;;;;10.31;100.00;97825.08;1810610;78;20998;-89
2022/10/03 04:32:25;;;;;;;13.10;4.40;;;;;;;10.24;100.00;97822.69;1822444;76;21152;-89
2022/10/03 04:35:08;;;;;;;11.90;6.08;;;;;;;10.25;100.00;97824.84;1825157;78;20994;-88
2022/10/03 04:37:42;;;;;;;6.22;3.08;;;;;;;10.24;100.00;97824.58;1825273;77;20990;-84
2022/10/03 04:40:25;;;;;;;5.92;3.25;;;;;;;10.17;100.00;97828.41;1826289;78;20944;-84
2022/10/03 04:43:12;;;;;;;9.23;4.08;;;;;;;10.08;100.00;97826.04;1828126;77;21014;-88
2022/10/03 04:46:11;;;;;;;7.97;3.65;;;;;;;10.10;100.00;97828.45;1828287;77;21033;-88
2022/10/03 04:48:51;;;;;;;10.68;3.27;;;;;;;10.08;100.00;97826.04;1812470;77;22323;-84
2022/10/03 04:51:35;;;;;;;7.97;3.77;;;;;;;10.06;100.00;97821.42;1827549;78;20986;-87
2022/10/03 04:54:15;;;;;;;6.10;3.95;;;;;;;10.06;100.00;97825.48;1828052;77;21430;-84
2022/10/03 04:57:02;;;;;;;5.55;2.85;;;;;;;10.08;100.00;97838.73;1815468;78;21011;-88
2022/10/03 04:59:46;;;;;;;6.80;3.80;;;;;;;10.08;100.00;97838.73;1770919;79;21237;-85
2022/10/03 05:02:55;;;;;;;9.33;3.92;;;;;;;10.07;100.00;97838.48;1811287;77;21280;-85
2022/10/03 05:05:57;;;;;;;14.78;3.95;;;;;;;10.07;100.00;97837.92;1819108;78;21001;-88
2022/10/03 05:08:53;;;;;;;10.30;3.72;;;;;;;10.07;100.00;97833.06;1820981;77;20949;-87
2022/10/03 05:11:48;;;;;;;8.78;2.80;;;;;;;10.08;100.00;97837.38;1809502;78;21054;-88
2022/10/03 05:14:51;;;;;;;10.58;3.55;;;;;;;10.10;100.00;97835.23;1781793;76;21057;-88
2022/10/03 05:17:45;;;;;;;14.65;4.20;;;;;;;10.11;100.00;97846.31;1790753;77;21164;-85
2022/10/03 05:20:46;;;;;;;7.58;3.22;;;;;;;10.12;100.00;97837.91;1801413;76;21004;-84
2022/10/03 05:23:29;;;;;;;10.38;3.40;;;;;;;10.15;100.00;97840.59;1826391;77;21486;-85
2022/10/03 05:26:24;;;;;;;7.35;2.62;;;;;;;10.18;100.00;97835.44;1808476;76;21044;-85
2022/10/03 05:29:15;;;;;;;5.72;2.10;;;;;;;10.20;100.00;97844.63;1821510;77;21284;-88
2022/10/03 05:32:13;;;;;;;11.28;2.80;;;;;;;10.24;100.00;97844.34;1798608;76;20996;-85
2022/10/03 05:35:02;;;;;;;10.82;3.52;;;;;;;10.24;100.00;97849.77;1805615;77;21029;-84
2022/10/03 05:37:52;;;;;;;10.20;3.35;;;;;;;10.24;100.00;97849.77;1787519;77;21000;-88
2022/10/03 05:40:24;;;;;;;6.33;2.80;;;;;;;10.27;100.00;97848.41;1791283;78;21054;-85
2022/10/03 05:42:55;;;;;;;7.70;2.85;;;;;;;10.30;100.00;97856.77;1796657;77;21296;-89
2022/10/03 05:45:39;;;;;;;8.93;3.45;;;;;;;10.30;100.00;97854.61;1794355;76;20994;-85
2022/10/03 05:48:34;;;;;;;7.20;2.60;;;;;;;10.30;100.00;97867.61;1811492;76;21044;-85
2022/10/03 05:51:21;;;;;;;6.65;3.17;;;;;;;10.24;100.00;97870.62;1809379;76;21030;-84
2022/10/03 05:54:15;;;;;;;6.83;2.60;;;;;;;10.26;100.00;97863.86;1805835;77;20985;-84
2022/10/03 05:57:10;;;;;;;14.47;3.33;;;;;;;10.27;100.00;97872.78;1795300;76;21058;-84
2022/10/03 06:00:11;;;;;;;15.80;4.65;;;;;;;10.29;100.00;97878.72;1820618;77;21469;-85
2022/10/03 06:03:15;;;;;;;8.60;3.83;;;;;;;10.26;100.00;97885.52;1802259;76;20993;-88
2022/10/03 06:06:19;;;;;;;14.95;4.55;;;;;;;10.27;100.00;97891.20;1807097;76;21517;-89
2022/10/03 06:09:03;;;;;;;10.45;3.15;;;;;;;10.20;100.00;97896.63;1813610;77;20986;-89
2022/10/03 06:12:02;;;;;;;14.10;4.92;;;;;;;10.16;100.00;97888.23;1804193;79;21254;-85
2022/10/03 06:14:51;;;;;;;16.05;5.25;;;;;;;10.14;100.00;97897.19;1770265;76;21022;-89
2022/10/03 06:17:45;;;;;;;8.18;2.62;;;;;;;10.20;100.00;97883.89;1811944;76;21731;-88
2022/10/03 06:20:50;;;;;;;18.98;7.90;;;;;;;10.18;100.00;97876.60;1806731;77;21444;-85
2022/10/03 06:23:48;;;;;;;13.35;4.47;;;;;;;10.08;100.00;97886.95;1793476;79;20983;-88
2022/10/03 06:27:00;;;;;;;8.98;3.77;;;;;;;10.13;100.00;97887.45;1815985;76;21846;-84
2022/10/03 06:30:04;;;;;;;5.08;2.45;;;;;;;10.17;100.00;97896.10;1808057;76;21437;-84
2022/10/03 06:32:58;;;;;;;12.68;4.62;;;;;;;10.24;100.00;97901.77;1811989;76;21019;-84
2022/10/03 06:36:03;;;;;;;5.17;3.12;;;;;;;10.23;100.00;97908.27;1807755;77;21030;-88
2022/10/03 06:39:10;;;;;;;6.92;2.95;;;;;;;10.26;100.00;97903.13;1805476;78;21001;-85
2022/10/03 06:41:53;;;;;;;8.15;2.42;;;;;;;10.28;100.00;97907.70;1810620;78;21683;-84
2022/10/03 06:45:00;;;;;;;7.00;3.62;;;;;;;10.35;100.00;97903.34;1804410;76;21475;-84
2022/10/03 06:47:41;;;;;;;5.65;3.08;;;;;;;10.45;100.00;97915.45;1808453;76;21020;-89
2022/10/03 06:50:28;;;;;;;6.35;2.80;;;;;;;10.40;100.00;97910.87;1805753;77;21126;-89
2022/10/03 06:53:28;;;;;;;7.03;2.87;;;;;;;10.41;100.00;97905.70;1820747;76;21085;-89
2022/10/03 06:56:30;;;;;;;9.90;2.72;;;;;;;10.43;100.00;97910.33;1805838;77;21512;-90
2022/10/03 06:59:20;;;;;;;8.53;2.60;;;;;;;10.44;100.00;97920.61;1731645;80;21075;-90
2022/10/03 07:02:14;;;;;;;10.43;3.02;;;;;;;10.48;100.00;97911.36;1796906;77;20951;-89
2022/10/03 07:05:27;;;;;;;7.05;2.67;;;;;;;10.53;100.00;97917.56;1799013;76;20968;-89
2022/10/03 07:08:26;;;;;;;9.13;3.45;;;;;;;10.55;100.00;97921.34;1803805;76;21525;-86
2022/10/03 07:11:00;;;;;;;7.60;3.00;;;;;;;10.56;100.00;97920.25;1809881;76;21869;-90
2022/10/03 07:13:48;;;;;;;12.65;3.90;;;;;;;10.61;100.00;97923.75;1804990;77;21025;-85
2022/10/03 07:16:46;;;;;;;6.60;2.52;;;;;;;10.62;100.00;97919.13;1806643;76;21368;-84
2022/10/03 07:19:49;;;;;;;11.25;3.65;;;;;;;10.66;100.00;97916.11;1763252;79;21623;-85
2022/10/03 07:22:55;;;;;;;4.37;2.17;;;;;;;10.72;99.91;97912.28;1749377;79;21594;-89
2022/10/03 07:26:01;;;;;;;7.17;2.35;;;;;;;10.82;97.99;97920.32;1743478;79;21827;-90
2022/10/03 07:28:57;;;;;;;8.10;2.25;;;;;;;10.74;97.94;97910.89;1739147;79;21004;-84
2022/10/03 07:31:44;;;;;;;7.70;2.87;;;;;;;10.70;97.53;97913.92;1782240;76;21044;-90
2022/10/03 07:34:50;;;;;;;8.75;2.60;;;;;;;10.83;97.96;97918.42;1780833;77;21479;-84
2022/10/03 07:40:54;;;;;;;8.88;3.62;;;;;;;10.89;97.56;97927.59;1785359;76;21665;-85
2022/10/03 07:43:38;;;;;;;3.47;1.60;;;;;;;10.87;97.37;97932.49;1798651;77;21051;-90
2022/10/03 07:46:28;;;;;;;8.53;2.50;;;;;;;10.91;97.58;97931.36;1812584;76;21297;-85
2022/10/03 07:49:02;;;;;;;8.88;3.05;;;;;;;10.90;97.76;97921.07;1792508;77;20968;-85
2022/10/03 07:51:41;;;;;;;7.30;3.33;;;;;;;10.92;97.19;97928.91;1802848;77;21084;-91
2022/10/03 07:54:23;;;;;;;5.10;1.70;;;;;;;10.96;97.66;97929.44;1814151;77;21118;-89
2022/10/03 07:57:26;;;;;;;5.85;2.17;;;;;;;10.98;97.15;97941.34;1815120;76;20965;-89
2022/10/03 08:00:11;;;;;;;8.38;3.30;;;;;;;10.99;95.40;97932.11;1804587;77;21002;-89
2022/10/03 08:03:06;;;;;;;10.43;2.55;;;;;;;11.03;94.34;97928.30;1791284;77;20946;-85
2022/10/03 08:06:11;;;;;;;7.75;2.77;;;;;;;11.06;95.21;97934.50;1825039;76;20934;-88
2022/10/03 08:09:02;;;;;;;5.00;1.80;;;;;;;11.06;95.26;97920.95;1807418;76;21820;-90
2022/10/03 08:11:43;;;;;;;6.55;2.67;;;;;;;11.15;94.41;97927.37;1802235;76;20948;-89
2022/10/03 08:14:34;;;;;;;8.40;1.77;;;;;;;11.25;93.65;97932.14;1805188;77;21025;-85
2022/10/03 08:17:36;;;;;;;6.95;2.90;;;;;;;11.24;93.19;97920.23;1796621;76;21542;-90
2022/10/03 08:20:40;;;;;;;4.67;1.77;;;;;;;11.25;93.13;97922.65;1799835;77;20992;-84
2022/10/03 08:24:00;;;;;;;4.45;2.33;;;;;;;11.32;93.38;97929.10;1802745;76;21129;-85
2022/10/03 08:27:12;;;;;;;7.92;3.00;;;;;;;11.43;93.07;97917.04;1801201;77;20972;-90
2022/10/03 08:30:16;;;;;;;5.83;2.25;;;;;;;11.62;92.15;97906.80;1808383;76;21013;-84
2022/10/03 08:32:59;;;;;;;8.23;2.75;;;;;;;12.00;91.72;97902.31;1811170;77;20998;-90
2022/10/03 08:35:53;;;;;;;8.10;2.75;;;;;;;13.07;89.54;97889.24;1804524;76;21069;-85
2022/10/03 08:38:42;;;;;;;6.90;2.30;;;;;;;12.99;87.93;97889.41;1751522;77;22044;-90
2022/10/03 08:41:32;;;;;;;10.10;2.72;;;;;;;12.77;88.74;97899.29;1804165;77;21001;-85
2022/10/03 08:44:10;;;;;;;3.92;2.15;;;;;;;12.60;89.07;97897.11;1804414;77;21125;-85
2022/10/03 08:47:01;;;;;;;7.65;2.67;;;;;;;12.50;89.56;97895.91;1804672;77;21023;-85
2022/10/03 08:50:07;;;;;;;5.70;3.17;;;;;;;12.40;90.43;97911.27;1793667;77;21276;-90
2022/10/03 08:53:11;;;;;;;4.80;2.00;;;;;;;12.07;91.33;97906.28;1795436;76;21062;-91
2022/10/03 08:56:08;;;;;;;4.30;2.50;;;;;;;11.75;92.54;97915.06;1795868;76;21008;-90
2022/10/03 08:58:56;;;;;;;5.00;1.95;;;;;;;11.45;93.30;97919.46;1800489;77;20959;-84
2022/10/03 09:01:39;;;;;;;6.17;2.00;;;;;;;11.31;94.28;97924.77;1810826;76;20963;-90
2022/10/03 09:04:46;;;;;;;3.65;2.10;;;;;;;11.32;94.75;97926.39;1814748;76;20968;-90
2022/10/03 09:07:41;;;;;;;9.40;2.00;;;;;;;11.07;95.88;97927.44;1805044;77;21765;-85
2022/10/03 09:10:27;;;;;;;5.90;1.77;;;;;;;11.02;95.56;97930.17;1795917;76;21474;-90
2022/10/03 09:13:30;;;;;;;3.60;2.08;;;;;;;11.07;95.94;97931.50;1774287;78;20988;-84
2022/10/03 09:16:36;;;;;;;5.55;2.20;;;;;;;11.01;96.80;97932.08;1803986;76;20991;-84
2022/10/03 09:19:08;;;;;;;10.43;4.00;;;;;;;10.95;98.13;97935.95;1809777;77;20949;-85
2022/10/03 09:22:23;;;;;;;4.60;2.15;;;;;;;10.92;97.12;97935.14;1803864;76;21053;-90
2022/10/03 09:25:24;;;;;;;5.92;2.40;;;;;;;10.95;96.91;97935.95;1805347;76;21491;-90
2022/10/03 09:28:01;;;;;;;4.20;2.70;;;;;;;11.02;96.58;97938.31;1805279;77;21040;-90
2022/10/03 09:31:11;;;;;;;6.58;2.17;;;;;;;11.05;96.77;97928.82;1806344;76;21001;-90
2022/10/03 09:34:09;;;;;;;6.35;2.47;;;;;;;11.16;97.02;97917.59;1808261;78;21403;-90
2022/10/03 09:37:01;;;;;;;5.70;2.30;;;;;;;11.40;97.17;97921.70;1803652;77;21117;-89
2022/10/03 09:39:41;;;;;;;4.72;2.12;;;;;;;11.40;97.17;97921.70;1812912;76;21004;-89
2022/10/03 09:42:31;;;;;;;4.55;1.90;;;;;;;11.33;96.02;97922.58;1801996;76;21025;-89
2022/10/03 09:45:28;;;;;;;5.08;1.60;;;;;;;11.29;96.92;97945.41;1805877;78;22221;-84
2022/10/03 09:48:35;;;;;;;4.22;2.00;;;;;;;11.22;97.94;97940.05;1805459;77;20994;-92
2022/10/03 09:51:20;;;;;;;9.25;2.35;;;;;;;11.17;97.93;97939.54;1766829;78;21696;-89
2022/10/03 09:54:03;;;;;;;4.72;2.95;;;;;;;11.51;97.64;97940.03;1761180;79;20946;-88
2022/10/03 09:57:10;;;;;;;5.78;1.90;;;;;;;11.70;97.66;97932.75;1823220;76;21021;-89
2022/10/03 09:59:54;;;;;;;4.15;2.17;;;;;;;11.84;97.05;97945.13;1805418;78;21099;-90
2022/10/03 10:02:52;;;;;;;4.78;1.85;;;;;;;11.92;96.42;97940.97;1816455;76;21101;-88
2022/10/03 10:06:06;;;;;;;5.92;3.40;;;;;;;11.95;96.56;97951.23;1812079;76;21721;-84
2022/10/03 10:09:19;;;;;;;5.65;1.70;;;;;;;11.88;95.94;97939.39;1811342;76;22356;-84
2022/10/03 10:12:41;;;;;;;3.92;1.70;;;;;;;11.83;95.98;97942.96;1803761;76;21500;-88
2022/10/03 10:15:39;;;;;;;2.83;1.70;;;;;;;11.91;96.41;97933.38;1800510;78;21090;-84
2022/10/03 10:18:20;;;;;;;;;;;;;;;11.79;96.10;97947.86;1769416;79;21490;-84
2022/10/03 10:21:23;;;;;;;3.85;2.40;;;;;;;11.51;96.85;97944.09;1765759;76;21021;-88
2022/10/03 10:24:14;;;;;;;5.03;1.92;;;;;;;11.44;97.21;97944.98;1791706;78;21042;-89
2022/10/03 10:27:20;;;;;;;4.42;2.00;;;;;;;11.25;97.55;97953.03;1797530;78;21525;-88
2022/10/03 10:30:11;;;;;;;3.20;1.72;;;;;;;11.06;98.09;97942.09;1807262;76;20987;-89
2022/10/03 10:33:12;;;;;;;5.97;2.90;;;;;;;10.97;98.54;97939.18;1794097;76;21461;-90
2022/10/03 10:36:05;;;;;;;3.58;2.10;;;;;;;10.91;98.71;97943.56;1773870;78;21109;-84
2022/10/03 10:39:08;;;;;;;5.90;2.72;;;;;;;10.85;99.79;97941.98;1789805;78;21902;-84
2022/10/03 10:42:19;;;;;;;4.62;1.40;;;;;;;10.81;100.00;97936.88;1812150;76;21534;-90
2022/10/03 10:45:11;;;;;;;3.90;2.17;;;;;;;10.71;100.00;97939.12;1807214;78;21144;-89
2022/10/03 10:48:29;;;;;;;5.90;2.42;;;;;;;10.63;100.00;97939.17;1805211;77;21473;-85
2022/10/03 10:51:23;;;;;;;;;;;;;;;10.72;100.00;97923.92;1801671;76;21122;-84
2022/10/03 10:54:14;;;;;;;3.90;2.42;;;;;;;10.89;100.00;97922.16;1821847;76;20216;-90
2022/10/03 10:57:00;;;;;;;3.67;2.10;;;;;;;11.19;100.00;97928.41;1786596;76;21559;-84
2022/10/03 10:59:47;;;;;;;6.95;4.00;;;;;;;11.25;100.00;97925.36;1793812;78;21659;-89
2022/10/03 11:02:36;;;;;;;6.17;2.52;;;;;;;11.46;100.00;97926.53;1805639;78;20966;-84
2022/10/03 11:05:40;;;;;;;;;;;;;;;11.64;100.00;97934.48;1800684;76;21844;-89
2022/10/03 11:08:31;;;;;;;6.67;4.08;;;;;;;11.59;100.00;97939.40;1805433;77;20200;-90
2022/10/03 11:11:42;;;;;;;5.87;2.37;;;;;;;11.59;100.00;97941.56;1792955;76;21053;-90
2022/10/03 11:14:35;;;;;;;11.35;7.10;;;;;;;11.53;100.00;97942.70;1785690;79;21041;-88
2022/10/03 11:17:25;;;;;;;6.22;2.70;;;;;;;11.51;100.00;97948.17;1790785;75;21562;-84
2022/10/03 11:20:36;;;;;;;5.08;2.40;;;;;;;11.36;99.98;97940.98;1805677;76;22105;-89
2022/10/03 11:23:08;;;;;;;4.92;3.10;;;;;;;11.32;99.81;97950.80;1802570;77;21063;-84
2022/10/03 11:26:06;;;;;;;6.70;3.25;;;;;;;11.26;99.89;97943.80;1806554;76;21060;-84
2022/10/03 11:29:15;;;;;;;3.12;1.50;;;;;;;11.23;100.00;97938.41;1803992;77;22183;-84
2022/10/03 11:32:29;;;;;;;3.02;1.90;;;;;;;11.25;99.48;97929.98;1812681;76;20965;-89
2022/10/03 11:35:16;;;;;;;5.92;2.10;;;;;;;11.23;99.39;97932.98;1799913;77;21534;-88
2022/10/03 11:38:01;;;;;;;6.65;3.20;;;;;;;11.24;99.50;97939.22;1807127;76;20996;-84
2022/10/03 11:40:41;;;;;;;16.02;9.55;;;;;;;11.18;98.87;97933.02;1821371;76;21036;-89
2022/10/03 11:43:51;;;;;;;11.05;4.65;;;;;;;11.20;99.44;97930.85;1821197;76;21554;-83
2022/10/03 11:46:50;;;;;;;5.17;2.00;;;;;;;11.17;99.56;97937.38;1810704;76;21056;-84
2022/10/03 11:49:30;;;;;;;4.75;3.35;;;;;;;11.13;99.68;97956.69;1797630;77;21491;-89
2022/10/03 11:52:26;;;;;;;5.70;3.72;;;;;;;11.07;99.59;97959.97;1799511;77;21102;-84
2022/10/03 11:55:06;;;;;;;6.53;4.17;;;;;;;11.03;100.00;97954.87;1779437;76;21026;-88
2022/10/03 11:57:38;;;;;;;2.85;2.08;;;;;;;11.06;100.00;97953.48;1772122;77;22194;-84
2022/10/03 12:00:13;;;;;;;8.33;3.60;;;;;;;11.08;100.00;97945.87;1813256;77;21211;-84
2022/10/03 12:03:12;;;;;;;8.53;4.05;;;;;;;11.08;100.00;97952.64;1772194;79;21127;-89
2022/10/03 12:08:55;;;;;;;5.25;3.37;;;;;;;11.07;100.00;97937.47;1796869;77;21031;-85
2022/10/03 12:11:27;;;;;;;6.60;2.98;;;;;;;11.04;100.00;97944.28;1772507;78;21047;-84
2022/10/03 12:14:10;;;;;;;3.10;1.87;;;;;;;11.07;100.00;97953.74;1791829;77;20990;-89
2022/10/03 12:17:02;;;;;;;4.50;2.60;;;;;;;10.99;100.00;97952.45;1803384;77;21200;-84
2022/10/03 12:19:52;;;;;;;6.42;3.25;;;;;;;10.97;100.00;97961.41;1799052;76;20958;-90
2022/10/03 12:22:40;;;;;;;2.37;1.42;;;;;;;10.95;100.00;97956.83;1775966;78;21049;-89
2022/10/03 12:25:30;;;;;;;2.72;1.35;;;;;;;10.90;100.00;97953.59;1802507;77;21089;-85
2022/10/03 12:28:14;;;;;;;6.55;2.17;;;;;;;10.92;100.00;97961.45;1807091;76;20964;-90
2022/10/03 12:30:50;;;;;;;2.65;1.65;;;;;;;10.87;100.00;97968.28;1809600;77;21762;-84
2022/10/03 12:33:26;;;;;;;1.60;1.20;;;;;;;10.78;100.00;97968.62;1772086;77;21007;-85
2022/10/03 12:36:02;;;;;;;3.85;1.72;;;;;;;10.75;100.00;97978.09;1805324;76;22386;-89
2022/10/03 12:38:53;;;;;;;4.15;2.22;;;;;;;10.69;100.00;97968.41;1800746;77;21016;-84
2022/10/03 12:41:39;;;;;;;4.42;2.22;;;;;;;10.67;100.00;97975.98;1812605;77;21011;-84
2022/10/03 12:44:29;;;;;;;3.60;2.25;;;;;;;10.66;100.00;97977.89;1812265;76;21896;-89
2022/10/03 12:47:35;;;;;;;9.43;4.17;;;;;;;10.69;100.00;97978.70;1805466;78;22152;-84
2022/10/03 12:50:36;;;;;;;8.80;4.53;;;;;;;10.71;100.00;97983.29;1808083;76;20980;-88
2022/10/03 12:53:22;;;;;;;4.83;2.52;;;;;;;10.70;100.00;97985.73;1769135;76;21018;-89
2022/10/03 12:56:14;;;;;;;7.03;3.08;;;;;;;10.73;100.00;97985.71;1810164;76;21444;-84
2022/10/03 12:59:07;;;;;;;4.42;2.02;;;;;;;10.82;100.00;97985.92;1800326;76;21116;-84
2022/10/03 13:02:05;;;;;;;5.50;1.90;;;;;;;10.76;100.00;97990.55;1786420;77;21464;-84
2022/10/03 13:04:54;;;;;;;5.45;1.65;;;;;;;10.69;100.00;97992.25;1817020;76;21002;-89
2022/10/03 13:07:37;;;;;;;3.80;2.37;;;;;;;10.62;100.00;97993.10;1813123;76;21024;-84
2022/10/03 13:10:20;;;;;;;8.90;2.72;;;;;;;10.63;100.00;97987.95;1815453;76;20982;-84
2022/10/03 13:13:04;;;;;;;4.72;1.60;;;;;;;10.73;100.00;97997.36;1802982;76;21050;-84
2022/10/03 13:16:07;;;;;;;7.65;2.77;;;;;;;10.77;100.00;97983.23;1799172;76;21613;-89
2022/10/03 13:18:54;;;;;;;9.25;2.20;;;;;;;10.87;100.00;97998.09;1797376;76;21577;-85
2022/10/03 13:22:05;;;;;;;3.92;2.08;;;;;;;10.94;100.00;97991.81;1805878;77;21062;-89
2022/10/03 13:24:48;;;;;;;3.42;2.10;;;;;;;10.96;100.00;97992.34;1736180;81;21063;-88
2022/10/03 13:27:20;;;;;;;3.22;1.55;;;;;;;10.81;100.00;97999.21;1802922;77;21130;-88
2022/10/03 13:29:49;;;;;;;9.10;5.10;;;;;;;10.60;100.00;97995.29;1802649;77;20995;-87
2022/10/03 13:32:30;;;;;;;7.58;3.85;;;;;;;10.55;100.00;98000.72;1796846;78;21031;-89
2022/10/03 13:38:48;;;;;;;3.72;1.67;;;;;;;10.39;100.00;97997.83;1777952;78;21538;-84